sensor_id;sensor_type;location;lat;lon;timestamp;temperature;humidity
80212;DHT22;70434;37.956;23.722;2023-06-22T00:01:56;29.00;29.80
80212;DHT22;70434;37.956;23.722;2023-06-22T00:04:22;28.90;29.90
80212;DHT22;70434;37.956;23.722;2023-06-22T00:06:48;28.80;30.00
80212;DHT22;70434;37.956;23.722;2023-06-22T00:09:13;28.80;30.00
80212;DHT22;70434;37.956;23.722;2023-06-22T00:11:39;28.80;30.00
80212;DHT22;70434;37.956;23.722;2023-06-22T00:14:05;28.80;30.20
80212;DHT22;70434;37.956;23.722;2023-06-22T00:16:36;28.70;30.20
80212;DHT22;70434;37.956;23.722;2023-06-22T00:19:02;28.70;30.30
80212;DHT22;70434;37.956;23.722;2023-06-22T00:21:29;28.70;30.20
80212;DHT22;70434;37.956;23.722;2023-06-22T00:23:55;28.80;30.30
80212;DHT22;70434;37.956;23.722;2023-06-22T00:26:21;28.70;30.50
80212;DHT22;70434;37.956;23.722;2023-06-22T00:28:47;28.70;30.10
80212;DHT22;70434;37.956;23.722;2023-06-22T00:31:13;28.70;30.20
80212;DHT22;70434;37.956;23.722;2023-06-22T00:33:39;28.70;30.30
80212;DHT22;70434;37.956;23.722;2023-06-22T00:36:05;28.70;30.20
80212;DHT22;70434;37.956;23.722;2023-06-22T00:38:33;28.70;30.10
80212;DHT22;70434;37.956;23.722;2023-06-22T00:40:59;28.60;29.90
80212;DHT22;70434;37.956;23.722;2023-06-22T00:43:24;28.60;29.90
80212;DHT22;70434;37.956;23.722;2023-06-22T00:45:50;28.60;29.80
80212;DHT22;70434;37.956;23.722;2023-06-22T00:48:16;28.60;29.90
80212;DHT22;70434;37.956;23.722;2023-06-22T00:50:42;28.60;30.90
80212;DHT22;70434;37.956;23.722;2023-06-22T00:53:09;28.60;30.00
80212;DHT22;70434;37.956;23.722;2023-06-22T00:55:41;28.50;29.90
80212;DHT22;70434;37.956;23.722;2023-06-22T00:58:17;28.50;30.00
80212;DHT22;70434;37.956;23.722;2023-06-22T01:00:43;28.50;29.90
80212;DHT22;70434;37.956;23.722;2023-06-22T01:03:09;28.50;30.10
80212;DHT22;70434;37.956;23.722;2023-06-22T01:05:38;28.50;30.30
80212;DHT22;70434;37.956;23.722;2023-06-22T01:11:09;28.50;30.40
80212;DHT22;70434;37.956;23.722;2023-06-22T01:13:59;28.50;30.60
80212;DHT22;70434;37.956;23.722;2023-06-22T01:16:28;28.50;30.60
80212;DHT22;70434;37.956;23.722;2023-06-22T01:18:56;28.40;30.40
80212;DHT22;70434;37.956;23.722;2023-06-22T01:21:25;28.40;30.40
80212;DHT22;70434;37.956;23.722;2023-06-22T01:29:33;28.40;31.00
80212;DHT22;70434;37.956;23.722;2023-06-22T01:32:02;28.40;31.20
80212;DHT22;70434;37.956;23.722;2023-06-22T01:34:31;28.40;31.30
80212;DHT22;70434;37.956;23.722;2023-06-22T01:36:58;28.40;31.20
80212;DHT22;70434;37.956;23.722;2023-06-22T01:39:26;28.40;31.30
80212;DHT22;70434;37.956;23.722;2023-06-22T01:41:53;28.40;31.40
80212;DHT22;70434;37.956;23.722;2023-06-22T01:44:19;28.40;31.40
80212;DHT22;70434;37.956;23.722;2023-06-22T01:46:45;28.40;31.40
80212;DHT22;70434;37.956;23.722;2023-06-22T01:49:11;28.30;31.10
80212;DHT22;70434;37.956;23.722;2023-06-22T01:51:38;28.30;31.20
80212;DHT22;70434;37.956;23.722;2023-06-22T01:54:05;28.30;31.20
80212;DHT22;70434;37.956;23.722;2023-06-22T01:56:32;28.30;31.20
80212;DHT22;70434;37.956;23.722;2023-06-22T01:59:15;28.30;31.10
80212;DHT22;70434;37.956;23.722;2023-06-22T02:02:01;28.30;30.70
80212;DHT22;70434;37.956;23.722;2023-06-22T02:08:11;28.20;30.90
80212;DHT22;70434;37.956;23.722;2023-06-22T02:10:38;28.10;31.10
80212;DHT22;70434;37.956;23.722;2023-06-22T02:16:28;28.10;31.10
80212;DHT22;70434;37.956;23.722;2023-06-22T02:18:56;28.00;31.10
80212;DHT22;70434;37.956;23.722;2023-06-22T02:21:24;28.00;31.00
80212;DHT22;70434;37.956;23.722;2023-06-22T02:23:49;28.00;30.70
80212;DHT22;70434;37.956;23.722;2023-06-22T02:26:17;28.00;30.60
80212;DHT22;70434;37.956;23.722;2023-06-22T02:28:43;28.00;31.00
80212;DHT22;70434;37.956;23.722;2023-06-22T02:31:09;27.90;31.30
80212;DHT22;70434;37.956;23.722;2023-06-22T02:33:35;27.90;31.40
80212;DHT22;70434;37.956;23.722;2023-06-22T02:36:01;27.90;31.30
80212;DHT22;70434;37.956;23.722;2023-06-22T02:38:33;27.90;31.10
80212;DHT22;70434;37.956;23.722;2023-06-22T02:41:00;27.90;31.00
80212;DHT22;70434;37.956;23.722;2023-06-22T02:43:26;27.90;31.20
80212;DHT22;70434;37.956;23.722;2023-06-22T02:45:52;27.80;31.40
80212;DHT22;70434;37.956;23.722;2023-06-22T02:48:17;27.80;31.60
80212;DHT22;70434;37.956;23.722;2023-06-22T02:50:43;27.80;32.00
80212;DHT22;70434;37.956;23.722;2023-06-22T02:53:09;27.80;31.70
80212;DHT22;70434;37.956;23.722;2023-06-22T02:55:34;27.70;31.70
80212;DHT22;70434;37.956;23.722;2023-06-22T02:58:00;27.70;31.60
80212;DHT22;70434;37.956;23.722;2023-06-22T03:00:30;27.60;31.60
80212;DHT22;70434;37.956;23.722;2023-06-22T03:02:57;27.60;31.90
80212;DHT22;70434;37.956;23.722;2023-06-22T03:05:23;27.60;31.80
80212;DHT22;70434;37.956;23.722;2023-06-22T03:07:49;27.50;31.60
80212;DHT22;70434;37.956;23.722;2023-06-22T03:10:15;27.50;31.60
80212;DHT22;70434;37.956;23.722;2023-06-22T03:12:42;27.60;31.60
80212;DHT22;70434;37.956;23.722;2023-06-22T03:15:10;27.60;31.80
80212;DHT22;70434;37.956;23.722;2023-06-22T03:17:37;27.60;31.50
80212;DHT22;70434;37.956;23.722;2023-06-22T03:20:08;27.70;31.30
80212;DHT22;70434;37.956;23.722;2023-06-22T03:22:35;27.70;31.50
80212;DHT22;70434;37.956;23.722;2023-06-22T03:25:01;27.70;31.40
80212;DHT22;70434;37.956;23.722;2023-06-22T03:27:27;27.70;31.40
80212;DHT22;70434;37.956;23.722;2023-06-22T03:29:53;27.70;31.30
80212;DHT22;70434;37.956;23.722;2023-06-22T03:32:18;27.70;31.40
80212;DHT22;70434;37.956;23.722;2023-06-22T03:34:44;27.80;32.10
80212;DHT22;70434;37.956;23.722;2023-06-22T03:37:14;27.90;31.00
80212;DHT22;70434;37.956;23.722;2023-06-22T03:39:43;27.80;31.10
80212;DHT22;70434;37.956;23.722;2023-06-22T03:42:09;27.90;31.40
80212;DHT22;70434;37.956;23.722;2023-06-22T03:44:35;27.90;31.60
80212;DHT22;70434;37.956;23.722;2023-06-22T03:47:05;27.90;31.40
80212;DHT22;70434;37.956;23.722;2023-06-22T03:49:33;27.90;31.30
80212;DHT22;70434;37.956;23.722;2023-06-22T03:52:00;28.00;31.40
80212;DHT22;70434;37.956;23.722;2023-06-22T03:54:28;28.00;31.30
80212;DHT22;70434;37.956;23.722;2023-06-22T03:56:54;28.10;31.40
80212;DHT22;70434;37.956;23.722;2023-06-22T03:59:20;28.10;31.40
80212;DHT22;70434;37.956;23.722;2023-06-22T04:01:46;28.10;31.20
80212;DHT22;70434;37.956;23.722;2023-06-22T04:04:12;28.10;31.00
80212;DHT22;70434;37.956;23.722;2023-06-22T04:06:38;28.10;31.20
80212;DHT22;70434;37.956;23.722;2023-06-22T04:09:05;28.10;31.20
80212;DHT22;70434;37.956;23.722;2023-06-22T04:11:31;28.10;31.60
80212;DHT22;70434;37.956;23.722;2023-06-22T04:13:57;28.10;31.40
80212;DHT22;70434;37.956;23.722;2023-06-22T04:16:22;28.10;30.90
80212;DHT22;70434;37.956;23.722;2023-06-22T04:18:48;28.10;31.10
80212;DHT22;70434;37.956;23.722;2023-06-22T04:21:14;28.10;31.00
80212;DHT22;70434;37.956;23.722;2023-06-22T04:23:40;28.10;31.20
80212;DHT22;70434;37.956;23.722;2023-06-22T04:26:05;28.20;31.50
80212;DHT22;70434;37.956;23.722;2023-06-22T04:28:31;28.20;31.70
80212;DHT22;70434;37.956;23.722;2023-06-22T04:31:01;28.20;31.60
80212;DHT22;70434;37.956;23.722;2023-06-22T04:33:28;28.20;31.70
80212;DHT22;70434;37.956;23.722;2023-06-22T04:35:57;28.30;31.50
80212;DHT22;70434;37.956;23.722;2023-06-22T04:38:24;28.30;31.20
80212;DHT22;70434;37.956;23.722;2023-06-22T04:40:50;28.30;31.10
80212;DHT22;70434;37.956;23.722;2023-06-22T04:43:16;28.30;31.30
80212;DHT22;70434;37.956;23.722;2023-06-22T04:45:42;28.30;31.10
80212;DHT22;70434;37.956;23.722;2023-06-22T04:48:08;28.30;31.10
80212;DHT22;70434;37.956;23.722;2023-06-22T04:50:41;28.40;31.20
80212;DHT22;70434;37.956;23.722;2023-06-22T04:53:07;28.40;31.20
80212;DHT22;70434;37.956;23.722;2023-06-22T04:55:35;28.50;31.10
80212;DHT22;70434;37.956;23.722;2023-06-22T04:58:03;28.50;31.30
80212;DHT22;70434;37.956;23.722;2023-06-22T05:00:30;28.50;31.80
80212;DHT22;70434;37.956;23.722;2023-06-22T05:02:56;28.50;31.70
80212;DHT22;70434;37.956;23.722;2023-06-22T05:05:24;28.50;31.50
80212;DHT22;70434;37.956;23.722;2023-06-22T05:07:51;28.50;31.50
80212;DHT22;70434;37.956;23.722;2023-06-22T05:10:19;28.60;31.70
80212;DHT22;70434;37.956;23.722;2023-06-22T05:12:46;28.60;31.50
80212;DHT22;70434;37.956;23.722;2023-06-22T05:15:12;28.70;31.70
80212;DHT22;70434;37.956;23.722;2023-06-22T05:17:38;28.80;31.20
80212;DHT22;70434;37.956;23.722;2023-06-22T05:20:10;28.80;30.90
80212;DHT22;70434;37.956;23.722;2023-06-22T05:22:36;28.80;30.90
80212;DHT22;70434;37.956;23.722;2023-06-22T05:25:02;28.90;31.00
80212;DHT22;70434;37.956;23.722;2023-06-22T05:27:27;28.80;31.00
80212;DHT22;70434;37.956;23.722;2023-06-22T05:29:53;28.80;31.10
80212;DHT22;70434;37.956;23.722;2023-06-22T05:32:19;28.80;31.20
80212;DHT22;70434;37.956;23.722;2023-06-22T05:34:45;28.90;31.40
80212;DHT22;70434;37.956;23.722;2023-06-22T05:37:10;29.00;31.60
80212;DHT22;70434;37.956;23.722;2023-06-22T05:39:38;29.10;31.10
80212;DHT22;70434;37.956;23.722;2023-06-22T05:42:05;29.20;30.50
80212;DHT22;70434;37.956;23.722;2023-06-22T05:44:32;29.20;30.50
80212;DHT22;70434;37.956;23.722;2023-06-22T05:46:59;29.30;30.40
80212;DHT22;70434;37.956;23.722;2023-06-22T05:49:24;29.40;30.50
80212;DHT22;70434;37.956;23.722;2023-06-22T05:51:55;29.50;30.90
80212;DHT22;70434;37.956;23.722;2023-06-22T05:54:22;29.50;30.70
80212;DHT22;70434;37.956;23.722;2023-06-22T05:56:48;29.50;31.30
80212;DHT22;70434;37.956;23.722;2023-06-22T05:59:14;29.50;30.30
80212;DHT22;70434;37.956;23.722;2023-06-22T06:01:39;29.60;30.50
80212;DHT22;70434;37.956;23.722;2023-06-22T06:04:06;29.60;30.70
80212;DHT22;70434;37.956;23.722;2023-06-22T06:06:34;29.80;31.20
80212;DHT22;70434;37.956;23.722;2023-06-22T06:09:03;29.80;31.20
80212;DHT22;70434;37.956;23.722;2023-06-22T06:11:29;29.80;30.60
80212;DHT22;70434;37.956;23.722;2023-06-22T06:13:55;29.90;30.30
80212;DHT22;70434;37.956;23.722;2023-06-22T06:16:22;29.90;30.70
80212;DHT22;70434;37.956;23.722;2023-06-22T06:18:48;30.00;30.80
80212;DHT22;70434;37.956;23.722;2023-06-22T06:21:16;29.90;31.10
80212;DHT22;70434;37.956;23.722;2023-06-22T06:23:42;30.00;31.70
80212;DHT22;70434;37.956;23.722;2023-06-22T06:26:08;30.00;32.00
80212;DHT22;70434;37.956;23.722;2023-06-22T06:28:35;30.00;31.80
80212;DHT22;70434;37.956;23.722;2023-06-22T06:31:00;30.10;32.00
80212;DHT22;70434;37.956;23.722;2023-06-22T06:33:26;30.10;31.90
80212;DHT22;70434;37.956;23.722;2023-06-22T06:35:52;30.10;32.10
80212;DHT22;70434;37.956;23.722;2023-06-22T06:38:18;30.20;31.90
80212;DHT22;70434;37.956;23.722;2023-06-22T06:40:44;30.30;32.00
80212;DHT22;70434;37.956;23.722;2023-06-22T06:43:10;30.30;32.00
80212;DHT22;70434;37.956;23.722;2023-06-22T06:45:36;30.40;32.20
80212;DHT22;70434;37.956;23.722;2023-06-22T06:48:02;30.50;31.80
80212;DHT22;70434;37.956;23.722;2023-06-22T06:50:31;30.40;31.90
80212;DHT22;70434;37.956;23.722;2023-06-22T06:52:57;30.50;31.90
80212;DHT22;70434;37.956;23.722;2023-06-22T06:55:24;30.70;31.60
80212;DHT22;70434;37.956;23.722;2023-06-22T06:57:51;30.80;31.40
80212;DHT22;70434;37.956;23.722;2023-06-22T07:00:18;30.70;31.40
80212;DHT22;70434;37.956;23.722;2023-06-22T07:02:45;30.70;31.40
80212;DHT22;70434;37.956;23.722;2023-06-22T07:05:12;30.70;31.80
80212;DHT22;70434;37.956;23.722;2023-06-22T07:07:38;30.80;32.10
80212;DHT22;70434;37.956;23.722;2023-06-22T07:10:05;30.80;31.90
80212;DHT22;70434;37.956;23.722;2023-06-22T07:12:31;30.80;31.50
80212;DHT22;70434;37.956;23.722;2023-06-22T07:15:10;30.80;31.40
80212;DHT22;70434;37.956;23.722;2023-06-22T07:17:38;30.80;31.30
80212;DHT22;70434;37.956;23.722;2023-06-22T07:20:07;30.80;32.10
80212;DHT22;70434;37.956;23.722;2023-06-22T07:22:44;30.80;31.20
80212;DHT22;70434;37.956;23.722;2023-06-22T07:25:10;30.90;31.30
80212;DHT22;70434;37.956;23.722;2023-06-22T07:27:43;30.90;31.40
80212;DHT22;70434;37.956;23.722;2023-06-22T07:30:11;31.00;31.70
80212;DHT22;70434;37.956;23.722;2023-06-22T07:32:37;30.90;31.80
80212;DHT22;70434;37.956;23.722;2023-06-22T07:35:03;31.00;31.50
80212;DHT22;70434;37.956;23.722;2023-06-22T07:37:30;31.10;30.90
80212;DHT22;70434;37.956;23.722;2023-06-22T07:39:56;31.20;31.40
80212;DHT22;70434;37.956;23.722;2023-06-22T07:42:25;31.20;31.50
80212;DHT22;70434;37.956;23.722;2023-06-22T07:44:51;31.30;31.00
80212;DHT22;70434;37.956;23.722;2023-06-22T07:47:17;31.30;30.80
80212;DHT22;70434;37.956;23.722;2023-06-22T07:49:48;31.30;31.10
80212;DHT22;70434;37.956;23.722;2023-06-22T07:52:14;31.40;30.80
80212;DHT22;70434;37.956;23.722;2023-06-22T07:54:40;31.30;30.60
80212;DHT22;70434;37.956;23.722;2023-06-22T07:57:06;31.30;31.00
80212;DHT22;70434;37.956;23.722;2023-06-22T07:59:31;31.30;30.30
80212;DHT22;70434;37.956;23.722;2023-06-22T08:01:57;31.20;30.20
80212;DHT22;70434;37.956;23.722;2023-06-22T08:04:23;31.30;30.50
80212;DHT22;70434;37.956;23.722;2023-06-22T08:06:49;31.40;30.30
80212;DHT22;70434;37.956;23.722;2023-06-22T08:09:15;31.30;30.00
80212;DHT22;70434;37.956;23.722;2023-06-22T08:11:40;31.30;30.30
80212;DHT22;70434;37.956;23.722;2023-06-22T08:14:06;31.40;30.60
80212;DHT22;70434;37.956;23.722;2023-06-22T08:16:32;31.50;30.40
80212;DHT22;70434;37.956;23.722;2023-06-22T08:19:00;31.50;30.40
80212;DHT22;70434;37.956;23.722;2023-06-22T08:21:43;31.50;30.30
80212;DHT22;70434;37.956;23.722;2023-06-22T08:24:09;31.50;30.30
80212;DHT22;70434;37.956;23.722;2023-06-22T08:26:35;31.60;30.40
80212;DHT22;70434;37.956;23.722;2023-06-22T08:29:06;31.70;30.20
80212;DHT22;70434;37.956;23.722;2023-06-22T08:31:31;31.80;30.30
80212;DHT22;70434;37.956;23.722;2023-06-22T08:34:00;31.90;30.10
80212;DHT22;70434;37.956;23.722;2023-06-22T08:36:51;32.00;30.00
80212;DHT22;70434;37.956;23.722;2023-06-22T08:39:43;32.00;29.60
80212;DHT22;70434;37.956;23.722;2023-06-22T08:42:09;31.90;30.00
80212;DHT22;70434;37.956;23.722;2023-06-22T08:44:35;31.90;29.60
80212;DHT22;70434;37.956;23.722;2023-06-22T08:47:00;31.90;29.60
80212;DHT22;70434;37.956;23.722;2023-06-22T08:49:29;31.90;30.00
80212;DHT22;70434;37.956;23.722;2023-06-22T08:51:55;31.90;30.20
80212;DHT22;70434;37.956;23.722;2023-06-22T08:54:22;31.90;30.00
80212;DHT22;70434;37.956;23.722;2023-06-22T08:56:48;31.90;30.00
80212;DHT22;70434;37.956;23.722;2023-06-22T08:59:14;32.00;30.00
80212;DHT22;70434;37.956;23.722;2023-06-22T09:01:39;32.00;29.30
80212;DHT22;70434;37.956;23.722;2023-06-22T09:04:05;31.90;29.40
80212;DHT22;70434;37.956;23.722;2023-06-22T09:09:37;31.90;29.20
80212;DHT22;70434;37.956;23.722;2023-06-22T09:12:03;31.90;29.20
80212;DHT22;70434;37.956;23.722;2023-06-22T09:14:29;32.00;29.60
80212;DHT22;70434;37.956;23.722;2023-06-22T09:16:54;32.00;29.20
80212;DHT22;70434;37.956;23.722;2023-06-22T09:19:20;32.00;29.20
80212;DHT22;70434;37.956;23.722;2023-06-22T09:21:46;32.10;29.50
80212;DHT22;70434;37.956;23.722;2023-06-22T09:24:12;32.20;29.30
80212;DHT22;70434;37.956;23.722;2023-06-22T09:26:37;32.30;29.00
80212;DHT22;70434;37.956;23.722;2023-06-22T09:29:05;32.20;28.60
80212;DHT22;70434;37.956;23.722;2023-06-22T09:31:31;32.10;28.70
80212;DHT22;70434;37.956;23.722;2023-06-22T09:33:57;32.10;29.20
80212;DHT22;70434;37.956;23.722;2023-06-22T09:36:23;32.20;29.00
80212;DHT22;70434;37.956;23.722;2023-06-22T09:38:49;32.10;29.00
80212;DHT22;70434;37.956;23.722;2023-06-22T09:41:22;32.00;28.70
80212;DHT22;70434;37.956;23.722;2023-06-22T09:43:56;32.00;28.40
80212;DHT22;70434;37.956;23.722;2023-06-22T09:46:25;32.00;28.10
80212;DHT22;70434;37.956;23.722;2023-06-22T09:48:51;32.00;27.70
80212;DHT22;70434;37.956;23.722;2023-06-22T09:51:17;32.10;28.10
80212;DHT22;70434;37.956;23.722;2023-06-22T09:53:44;32.20;28.50
80212;DHT22;70434;37.956;23.722;2023-06-22T09:56:10;32.20;28.40
80212;DHT22;70434;37.956;23.722;2023-06-22T09:58:44;32.30;28.30
80212;DHT22;70434;37.956;23.722;2023-06-22T10:01:11;32.50;28.60
80212;DHT22;70434;37.956;23.722;2023-06-22T10:03:37;32.60;27.50
80212;DHT22;70434;37.956;23.722;2023-06-22T10:06:03;32.50;27.70
80212;DHT22;70434;37.956;23.722;2023-06-22T10:08:29;32.50;27.60
80212;DHT22;70434;37.956;23.722;2023-06-22T10:10:55;32.50;27.80
80212;DHT22;70434;37.956;23.722;2023-06-22T10:13:21;32.50;27.50
80212;DHT22;70434;37.956;23.722;2023-06-22T10:15:46;32.60;27.40
80212;DHT22;70434;37.956;23.722;2023-06-22T10:18:20;32.60;27.70
80212;DHT22;70434;37.956;23.722;2023-06-22T10:20:48;32.80;28.50
80212;DHT22;70434;37.956;23.722;2023-06-22T10:23:14;32.80;28.40
80212;DHT22;70434;37.956;23.722;2023-06-22T10:25:40;32.80;27.20
80212;DHT22;70434;37.956;23.722;2023-06-22T10:28:06;32.80;27.60
80212;DHT22;70434;37.956;23.722;2023-06-22T10:30:32;32.90;28.10
80212;DHT22;70434;37.956;23.722;2023-06-22T10:33:03;32.90;27.80
80212;DHT22;70434;37.956;23.722;2023-06-22T10:35:29;33.00;27.60
80212;DHT22;70434;37.956;23.722;2023-06-22T10:37:55;32.90;27.50
80212;DHT22;70434;37.956;23.722;2023-06-22T10:40:21;33.00;27.80
80212;DHT22;70434;37.956;23.722;2023-06-22T10:42:47;33.10;27.80
80212;DHT22;70434;37.956;23.722;2023-06-22T10:45:13;33.10;28.10
80212;DHT22;70434;37.956;23.722;2023-06-22T10:47:39;33.20;28.30
80212;DHT22;70434;37.956;23.722;2023-06-22T10:50:08;33.20;28.30
80212;DHT22;70434;37.956;23.722;2023-06-22T10:52:37;33.20;28.40
80212;DHT22;70434;37.956;23.722;2023-06-22T10:55:06;33.30;28.40
80212;DHT22;70434;37.956;23.722;2023-06-22T10:57:32;33.40;27.80
80212;DHT22;70434;37.956;23.722;2023-06-22T10:59:57;33.60;27.80
80212;DHT22;70434;37.956;23.722;2023-06-22T11:02:23;33.60;26.70
80212;DHT22;70434;37.956;23.722;2023-06-22T11:04:50;33.70;26.90
80212;DHT22;70434;37.956;23.722;2023-06-22T11:07:15;33.60;26.70
80212;DHT22;70434;37.956;23.722;2023-06-22T11:09:43;33.60;27.40
80212;DHT22;70434;37.956;23.722;2023-06-22T11:12:09;33.70;27.90
80212;DHT22;70434;37.956;23.722;2023-06-22T11:14:35;33.80;27.70
80212;DHT22;70434;37.956;23.722;2023-06-22T11:17:00;33.90;27.30
80212;DHT22;70434;37.956;23.722;2023-06-22T11:19:26;34.00;27.00
80212;DHT22;70434;37.956;23.722;2023-06-22T11:21:52;34.00;26.80
80212;DHT22;70434;37.956;23.722;2023-06-22T11:24:17;33.90;27.30
80212;DHT22;70434;37.956;23.722;2023-06-22T11:26:43;34.00;27.50
80212;DHT22;70434;37.956;23.722;2023-06-22T11:29:21;34.00;26.30
80212;DHT22;70434;37.956;23.722;2023-06-22T11:31:47;34.10;26.80
80212;DHT22;70434;37.956;23.722;2023-06-22T11:34:13;34.20;26.90
80212;DHT22;70434;37.956;23.722;2023-06-22T11:36:39;34.30;26.70
80212;DHT22;70434;37.956;23.722;2023-06-22T11:42:27;34.50;26.60
80212;DHT22;70434;37.956;23.722;2023-06-22T11:44:53;34.70;26.40
80212;DHT22;70434;37.956;23.722;2023-06-22T11:47:19;34.80;26.40
80212;DHT22;70434;37.956;23.722;2023-06-22T11:49:45;34.80;26.80
80212;DHT22;70434;37.956;23.722;2023-06-22T11:52:11;34.90;26.80
80212;DHT22;70434;37.956;23.722;2023-06-22T11:54:36;34.90;26.40
80212;DHT22;70434;37.956;23.722;2023-06-22T11:57:03;34.90;26.30
80212;DHT22;70434;37.956;23.722;2023-06-22T11:59:28;34.90;26.30
80212;DHT22;70434;37.956;23.722;2023-06-22T12:01:54;34.90;25.90
80212;DHT22;70434;37.956;23.722;2023-06-22T12:04:20;34.90;26.40
80212;DHT22;70434;37.956;23.722;2023-06-22T12:06:46;34.80;26.50
80212;DHT22;70434;37.956;23.722;2023-06-22T12:09:14;34.80;26.20
80212;DHT22;70434;37.956;23.722;2023-06-22T12:11:39;34.90;26.50
80212;DHT22;70434;37.956;23.722;2023-06-22T12:14:05;35.00;27.30
80212;DHT22;70434;37.956;23.722;2023-06-22T12:16:31;35.20;26.30
80212;DHT22;70434;37.956;23.722;2023-06-22T12:18:56;35.20;26.00
80212;DHT22;70434;37.956;23.722;2023-06-22T12:21:22;35.20;26.50
80212;DHT22;70434;37.956;23.722;2023-06-22T12:23:50;35.20;26.10
80212;DHT22;70434;37.956;23.722;2023-06-22T12:26:16;35.20;26.30
80212;DHT22;70434;37.956;23.722;2023-06-22T12:28:42;35.20;26.20
80212;DHT22;70434;37.956;23.722;2023-06-22T12:31:08;35.30;26.70
80212;DHT22;70434;37.956;23.722;2023-06-22T12:33:34;35.50;26.10
80212;DHT22;70434;37.956;23.722;2023-06-22T12:35:59;35.70;26.20
80212;DHT22;70434;37.956;23.722;2023-06-22T12:38:25;35.90;25.90
80212;DHT22;70434;37.956;23.722;2023-06-22T12:40:51;36.00;25.40
80212;DHT22;70434;37.956;23.722;2023-06-22T12:43:18;36.10;25.60
80212;DHT22;70434;37.956;23.722;2023-06-22T12:45:43;36.10;25.10
80212;DHT22;70434;37.956;23.722;2023-06-22T12:48:09;36.10;24.80
80212;DHT22;70434;37.956;23.722;2023-06-22T12:50:35;36.20;25.00
80212;DHT22;70434;37.956;23.722;2023-06-22T12:53:01;36.20;25.20
80212;DHT22;70434;37.956;23.722;2023-06-22T12:55:29;36.30;25.30
80212;DHT22;70434;37.956;23.722;2023-06-22T12:57:55;36.30;24.90
80212;DHT22;70434;37.956;23.722;2023-06-22T13:00:21;36.40;25.20
80212;DHT22;70434;37.956;23.722;2023-06-22T13:02:47;36.50;25.00
80212;DHT22;70434;37.956;23.722;2023-06-22T13:05:12;36.50;25.40
80212;DHT22;70434;37.956;23.722;2023-06-22T13:07:38;36.40;24.70
80212;DHT22;70434;37.956;23.722;2023-06-22T13:10:04;36.40;25.00
80212;DHT22;70434;37.956;23.722;2023-06-22T13:12:30;36.50;24.90
80212;DHT22;70434;37.956;23.722;2023-06-22T13:14:56;36.40;24.60
80212;DHT22;70434;37.956;23.722;2023-06-22T13:17:21;36.20;24.70
80212;DHT22;70434;37.956;23.722;2023-06-22T13:19:47;36.30;25.10
80212;DHT22;70434;37.956;23.722;2023-06-22T13:22:32;36.50;25.20
80212;DHT22;70434;37.956;23.722;2023-06-22T13:25:00;36.60;24.60
80212;DHT22;70434;37.956;23.722;2023-06-22T13:27:26;36.60;24.60
80212;DHT22;70434;37.956;23.722;2023-06-22T13:29:52;36.60;24.60
80212;DHT22;70434;37.956;23.722;2023-06-22T13:32:18;36.60;25.00
80212;DHT22;70434;37.956;23.722;2023-06-22T13:34:46;36.50;24.30
80212;DHT22;70434;37.956;23.722;2023-06-22T13:37:14;36.50;24.40
80212;DHT22;70434;37.956;23.722;2023-06-22T13:39:41;36.60;24.60
80212;DHT22;70434;37.956;23.722;2023-06-22T13:42:09;36.70;24.20
80212;DHT22;70434;37.956;23.722;2023-06-22T13:44:37;36.80;23.80
80212;DHT22;70434;37.956;23.722;2023-06-22T13:47:03;36.90;23.60
80212;DHT22;70434;37.956;23.722;2023-06-22T13:49:30;36.90;23.70
80212;DHT22;70434;37.956;23.722;2023-06-22T13:51:56;37.00;24.10
80212;DHT22;70434;37.956;23.722;2023-06-22T13:54:22;37.20;24.00
80212;DHT22;70434;37.956;23.722;2023-06-22T13:56:48;37.20;23.80
80212;DHT22;70434;37.956;23.722;2023-06-22T13:59:14;37.20;23.80
80212;DHT22;70434;37.956;23.722;2023-06-22T14:01:40;37.20;24.00
80212;DHT22;70434;37.956;23.722;2023-06-22T14:04:06;37.00;23.70
80212;DHT22;70434;37.956;23.722;2023-06-22T14:06:32;37.00;23.60
80212;DHT22;70434;37.956;23.722;2023-06-22T14:08:58;37.20;24.00
80212;DHT22;70434;37.956;23.722;2023-06-22T14:11:24;37.40;24.10
80212;DHT22;70434;37.956;23.722;2023-06-22T14:13:50;37.50;23.90
80212;DHT22;70434;37.956;23.722;2023-06-22T14:16:17;37.60;23.80
80212;DHT22;70434;37.956;23.722;2023-06-22T14:18:44;37.70;23.60
80212;DHT22;70434;37.956;23.722;2023-06-22T14:21:10;37.80;23.70
80212;DHT22;70434;37.956;23.722;2023-06-22T14:23:36;37.80;23.30
80212;DHT22;70434;37.956;23.722;2023-06-22T14:26:03;37.70;23.40
80212;DHT22;70434;37.956;23.722;2023-06-22T14:28:29;37.60;23.50
80212;DHT22;70434;37.956;23.722;2023-06-22T14:30:55;37.60;23.70
80212;DHT22;70434;37.956;23.722;2023-06-22T14:33:27;37.50;23.60
80212;DHT22;70434;37.956;23.722;2023-06-22T14:35:53;37.50;23.60
80212;DHT22;70434;37.956;23.722;2023-06-22T14:38:19;37.60;24.10
80212;DHT22;70434;37.956;23.722;2023-06-22T14:40:49;37.60;23.50
80212;DHT22;70434;37.956;23.722;2023-06-22T14:43:15;37.60;23.80
80212;DHT22;70434;37.956;23.722;2023-06-22T14:45:41;37.50;23.60
80212;DHT22;70434;37.956;23.722;2023-06-22T14:48:07;37.50;24.20
80212;DHT22;70434;37.956;23.722;2023-06-22T14:50:33;37.50;23.90
80212;DHT22;70434;37.956;23.722;2023-06-22T14:52:58;37.40;23.90
80212;DHT22;70434;37.956;23.722;2023-06-22T14:55:25;37.50;23.80
80212;DHT22;70434;37.956;23.722;2023-06-22T14:57:51;37.50;23.70
80212;DHT22;70434;37.956;23.722;2023-06-22T15:00:18;37.60;23.90
80212;DHT22;70434;37.956;23.722;2023-06-22T15:02:44;37.80;23.60
80212;DHT22;70434;37.956;23.722;2023-06-22T15:05:10;37.80;23.50
80212;DHT22;70434;37.956;23.722;2023-06-22T15:07:36;37.70;23.20
80212;DHT22;70434;37.956;23.722;2023-06-22T15:10:02;37.60;23.40
80212;DHT22;70434;37.956;23.722;2023-06-22T15:12:28;37.70;23.40
80212;DHT22;70434;37.956;23.722;2023-06-22T15:14:54;37.70;23.40
80212;DHT22;70434;37.956;23.722;2023-06-22T15:17:20;37.70;23.30
80212;DHT22;70434;37.956;23.722;2023-06-22T15:19:46;37.80;23.40
80212;DHT22;70434;37.956;23.722;2023-06-22T15:22:12;37.70;23.50
80212;DHT22;70434;37.956;23.722;2023-06-22T15:24:38;37.70;23.40
80212;DHT22;70434;37.956;23.722;2023-06-22T15:27:04;37.70;23.50
80212;DHT22;70434;37.956;23.722;2023-06-22T15:29:30;37.80;23.60
80212;DHT22;70434;37.956;23.722;2023-06-22T15:32:00;38.00;23.50
80212;DHT22;70434;37.956;23.722;2023-06-22T15:34:26;38.00;23.50
80212;DHT22;70434;37.956;23.722;2023-06-22T15:36:51;38.00;23.60